Hiler, New York
Current Conditions -  °F | °C
As of 10:54 AM on Friday 19 Dec 2014 (Local Time) from KBUF Reporting Station
Light Snow Light Snow  
Wind Chill: 17°   Ceiling: 1500
Heat Index: 26°   Visibility: 9mi
Dew Point: 20°   Wind: 9mph
Humidity: 78%   Direction: 260°W
Pressure: 30.18"   Gusts: NA
Location:  42.9735°N, 78.8457°W
Report Text: KBUF 191554Z 26008KT 9SM -SN FEW010 BKN015 OVC035 M03/M07 A3018 RMK AO2 SLP232 PRSNT WX -SNSG PCPN VRY LGT P0000 T10331067
Loading
Personal Weather Stations






























Interactive Weather Map New forecast layout! Learn more

10-Day Weather Forecast

Advertisements
Track Severe Weather on mobile